Time;durP1;ratioP1;P1;durP2;ratioP2;P2;SDS_P1;SDS_P2;PMS_P1;PMS_P2;Temp;Humidity;BMP_temperature;BMP_pressure;BME280_temperature;BME280_humidity;BME280_pressure;Samples;Min_cycle;Max_cycle;Signal;HPM_P1;HPM_P2
2023/01/22 00:01:11;;;;;;;26.73;15.90;;;-2.10;99.90;;;;;;5019458;28;20033;-80
2023/01/22 00:03:38;;;;;;;26.73;15.70;;;-2.10;99.90;;;;;;5018908;28;21250;-80
2023/01/22 00:06:04;;;;;;;30.23;17.53;;;-2.10;99.90;;;;;;5018642;28;20036;-81
2023/01/22 00:08:30;;;;;;;30.57;17.30;;;-2.10;99.90;;;;;;5020565;28;20026;-81
2023/01/22 00:10:56;;;;;;;29.23;17.17;;;-2.10;99.90;;;;;;5019649;28;20025;-81
2023/01/22 00:13:23;;;;;;;29.93;17.53;;;-2.10;99.90;;;;;;5000460;28;20069;-81
2023/01/22 00:15:49;;;;;;;29.90;18.23;;;-2.10;99.90;;;;;;5016523;28;20101;-81
2023/01/22 00:18:14;;;;;;;29.23;16.87;;;-2.10;99.90;;;;;;5020043;28;20040;-81
2023/01/22 00:20:40;;;;;;;31.07;18.10;;;-2.10;99.90;;;;;;5018251;28;20075;-81
2023/01/22 00:23:05;;;;;;;30.80;17.50;;;-2.10;99.90;;;;;;5019146;28;20029;-81
2023/01/22 00:25:31;;;;;;;30.93;17.17;;;-2.10;99.90;;;;;;5017695;28;20032;-81
2023/01/22 00:27:59;;;;;;;28.07;16.73;;;-2.10;99.90;;;;;;5017738;28;20037;-81
2023/01/22 00:30:25;;;;;;;32.40;16.57;;;-2.10;99.90;;;;;;5018403;28;20115;-81
2023/01/22 00:32:51;;;;;;;29.50;17.60;;;-2.10;99.90;;;;;;4997848;28;20036;-81
2023/01/22 00:35:16;;;;;;;28.17;17.10;;;-2.10;99.90;;;;;;5000982;28;20145;-81
2023/01/22 00:37:42;;;;;;;29.43;17.47;;;-2.10;99.90;;;;;;5017678;28;20095;-81
2023/01/22 00:40:08;;;;;;;29.23;16.93;;;-2.10;99.90;;;;;;5018250;28;20136;-81
2023/01/22 00:42:34;;;;;;;28.03;16.77;;;-2.10;99.90;;;;;;5018970;28;20497;-81
2023/01/22 00:44:59;;;;;;;31.77;17.73;;;-2.10;99.90;;;;;;4999390;28;20034;-81
2023/01/22 00:47:25;;;;;;;27.50;16.83;;;-2.10;99.90;;;;;;5000300;28;20033;-81
2023/01/22 00:49:50;;;;;;;31.17;17.77;;;-2.10;99.90;;;;;;5015528;28;20030;-81
2023/01/22 00:52:16;;;;;;;30.87;17.90;;;-2.10;99.90;;;;;;5018748;28;20120;-81
2023/01/22 00:54:42;;;;;;;30.27;17.40;;;-2.10;99.90;;;;;;5019646;28;20033;-81
2023/01/22 00:57:07;;;;;;;30.60;17.13;;;-2.10;99.90;;;;;;5018775;28;20033;-81
2023/01/22 00:59:33;;;;;;;30.93;17.93;;;-2.00;99.90;;;;;;4996163;28;20114;-81
2023/01/22 01:01:58;;;;;;;29.77;18.07;;;-2.00;99.90;;;;;;5017276;28;20116;-81
2023/01/22 01:04:24;;;;;;;30.17;17.40;;;-2.00;99.90;;;;;;5019590;28;20442;-81
2023/01/22 01:06:49;;;;;;;31.90;18.43;;;-2.00;99.90;;;;;;5018089;28;20140;-81
2023/01/22 01:09:15;;;;;;;30.47;17.80;;;-2.00;99.90;;;;;;5018531;28;20115;-81
2023/01/22 01:11:43;;;;;;;29.37;17.40;;;-2.00;99.90;;;;;;5019982;28;20056;-81
2023/01/22 01:14:08;;;;;;;31.13;17.90;;;-2.00;99.90;;;;;;5018415;28;20480;-81
2023/01/22 01:16:34;;;;;;;32.57;18.60;;;-2.00;99.90;;;;;;5019225;28;20042;-81
2023/01/22 01:19:06;;;;;;;31.57;18.83;;;-2.00;99.90;;;;;;5018842;28;20100;-81
2023/01/22 01:21:34;;;;;;;30.93;19.07;;;-2.00;99.90;;;;;;5017174;28;20044;-81
2023/01/22 01:24:00;;;;;;;30.43;17.83;;;-2.00;99.90;;;;;;5017140;28;20039;-81
2023/01/22 01:26:25;;;;;;;31.37;17.87;;;-2.00;99.90;;;;;;5018005;28;20029;-81
2023/01/22 01:28:51;;;;;;;32.97;18.87;;;-2.00;99.90;;;;;;5018466;28;21369;-81
2023/01/22 01:31:18;;;;;;;32.90;19.60;;;-2.00;99.90;;;;;;5006647;28;20474;-81
2023/01/22 01:33:44;;;;;;;33.17;18.87;;;-1.90;99.90;;;;;;4995992;28;20185;-81
2023/01/22 01:36:12;;;;;;;32.07;18.27;;;-2.00;99.90;;;;;;5018714;28;20036;-81
2023/01/22 01:38:38;;;;;;;29.57;18.17;;;-2.00;99.90;;;;;;5019693;28;20039;-81
2023/01/22 01:41:04;;;;;;;34.23;19.03;;;-2.00;99.90;;;;;;5019685;28;20053;-81
2023/01/22 01:43:30;;;;;;;31.57;18.50;;;-2.00;99.90;;;;;;5016029;28;20038;-81
2023/01/22 01:45:58;;;;;;;29.03;18.53;;;-2.00;99.90;;;;;;5016628;28;20120;-81
2023/01/22 01:48:32;;;;;;;30.33;18.40;;;-1.90;99.90;;;;;;5017507;28;20126;-81
2023/01/22 01:51:18;;;;;;;31.85;18.80;;;-1.90;99.90;;;;;;5017894;28;20049;-81
2023/01/22 01:53:46;;;;;;;31.40;18.03;;;-2.00;99.90;;;;;;5018549;28;20031;-81
2023/01/22 01:56:16;;;;;;;34.30;19.30;;;-1.90;99.90;;;;;;5018683;28;20043;-81
2023/01/22 01:58:43;;;;;;;31.57;18.93;;;-1.90;99.90;;;;;;5018462;28;20033;-81
2023/01/22 02:01:15;;;;;;;34.70;19.10;;;-2.00;99.90;;;;;;5017387;28;20191;-81
2023/01/22 02:03:41;;;;;;;36.70;20.00;;;-2.00;99.90;;;;;;5016262;28;20092;-81
2023/01/22 02:06:11;;;;;;;30.83;18.73;;;-2.00;99.90;;;;;;4996051;28;20033;-81
2023/01/22 02:08:38;;;;;;;33.57;18.87;;;-2.00;99.90;;;;;;5018080;28;20034;-81
2023/01/22 02:11:04;;;;;;;36.47;19.30;;;-2.00;99.90;;;;;;5017271;28;20053;-81
2023/01/22 02:13:32;;;;;;;36.23;19.67;;;-1.90;99.90;;;;;;5017962;28;20120;-81
2023/01/22 02:15:58;;;;;;;32.67;19.43;;;-1.90;99.90;;;;;;4998428;28;20041;-81
2023/01/22 02:18:24;;;;;;;33.67;19.73;;;-2.00;99.90;;;;;;4999147;28;20034;-81
2023/01/22 02:20:58;;;;;;;32.57;19.63;;;-1.90;99.90;;;;;;5016950;28;20216;-81
2023/01/22 02:23:24;;;;;;;30.57;17.23;;;-1.80;99.90;;;;;;5016761;28;20022;-81
2023/01/22 02:25:50;;;;;;;34.43;18.63;;;-1.80;99.90;;;;;;5016505;28;20041;-80
2023/01/22 02:28:16;;;;;;;33.50;19.20;;;-1.90;99.90;;;;;;5016823;28;20469;-80
2023/01/22 02:30:42;;;;;;;32.77;18.27;;;-1.80;99.90;;;;;;5018128;28;20055;-80
2023/01/22 02:33:09;;;;;;;31.40;18.80;;;-1.90;99.90;;;;;;4998000;28;20903;-81
2023/01/22 02:35:34;;;;;;;31.83;19.17;;;-1.90;99.90;;;;;;5016746;28;20108;-81
2023/01/22 02:38:00;;;;;;;29.70;19.37;;;-1.90;99.90;;;;;;5016525;28;20482;-81
2023/01/22 02:40:28;;;;;;;34.93;19.73;;;-1.90;99.90;;;;;;5016862;28;20057;-81
2023/01/22 02:42:53;;;;;;;35.07;19.57;;;-1.90;99.90;;;;;;5016656;28;20022;-80
2023/01/22 02:45:19;;;;;;;34.17;19.50;;;-1.90;99.90;;;;;;5017395;28;20111;-81
2023/01/22 02:47:44;;;;;;;35.13;20.63;;;-2.00;99.90;;;;;;5016125;28;20029;-80
2023/01/22 02:50:10;;;;;;;35.10;20.53;;;-1.90;99.90;;;;;;5022746;28;20033;-81
2023/01/22 02:52:36;;;;;;;34.87;20.23;;;-2.00;99.90;;;;;;5023417;28;20029;-81
2023/01/22 02:55:01;;;;;;;32.90;19.10;;;-2.00;99.90;;;;;;5022601;28;20139;-80
2023/01/22 02:57:29;;;;;;;34.13;18.67;;;-2.00;99.90;;;;;;5021928;28;20112;-81
2023/01/22 02:59:55;;;;;;;35.83;19.03;;;-2.00;99.90;;;;;;5021920;28;20022;-81
2023/01/22 03:02:21;;;;;;;32.87;19.40;;;-1.90;99.90;;;;;;5001062;28;20041;-81
2023/01/22 03:04:48;;;;;;;32.90;18.23;;;-2.00;99.90;;;;;;5004061;28;20367;-81
2023/01/22 03:07:16;;;;;;;33.03;18.90;;;-2.00;99.90;;;;;;5002931;28;20029;-81
2023/01/22 03:09:41;;;;;;;32.23;18.53;;;-2.00;99.90;;;;;;5023175;28;20025;-81
2023/01/22 03:12:07;;;;;;;33.93;19.73;;;-2.00;99.90;;;;;;5023673;28;21378;-81
2023/01/22 03:22:45;;;;;;;32.40;18.57;;;-2.00;99.90;;;;;;5022476;28;20040;-81
2023/01/22 03:25:10;;;;;;;31.83;19.07;;;-2.00;99.90;;;;;;5021039;28;20029;-81
2023/01/22 03:27:36;;;;;;;33.57;20.03;;;-2.00;99.90;;;;;;5021504;28;20026;-81
2023/01/22 03:30:03;;;;;;;35.73;20.30;;;-2.00;99.90;;;;;;5004388;28;20029;-81
2023/01/22 03:32:28;;;;;;;36.30;20.03;;;-2.00;99.90;;;;;;5024689;28;20080;-81
2023/01/22 03:34:54;;;;;;;37.37;19.97;;;-2.00;99.90;;;;;;5024055;28;20366;-81
2023/01/22 03:37:19;;;;;;;35.83;19.93;;;-2.00;99.90;;;;;;5023033;28;21316;-81
2023/01/22 03:39:45;;;;;;;30.40;18.17;;;-2.00;99.90;;;;;;5021856;28;20427;-81
2023/01/22 03:42:10;;;;;;;35.80;20.10;;;-2.00;99.90;;;;;;5021726;28;20033;-81
2023/01/22 03:44:36;;;;;;;37.30;20.17;;;-2.10;99.90;;;;;;5022932;28;20033;-81
2023/01/22 03:47:01;;;;;;;34.00;20.57;;;-2.00;99.90;;;;;;5002960;28;20025;-81
2023/01/22 03:49:27;;;;;;;37.50;21.10;;;-2.00;99.90;;;;;;5001926;28;20026;-81
2023/01/22 03:51:53;;;;;;;35.10;20.03;;;-2.10;99.90;;;;;;5023801;28;20891;-81
2023/01/22 03:54:18;;;;;;;35.17;19.70;;;-2.00;99.90;;;;;;5024825;28;20071;-81
2023/01/22 03:56:44;;;;;;;36.53;19.83;;;-2.00;99.90;;;;;;5003676;28;20021;-81
2023/01/22 03:59:10;;;;;;;37.17;21.30;;;-2.00;99.90;;;;;;5023747;28;20029;-81
2023/01/22 04:01:35;;;;;;;36.10;19.97;;;-2.10;99.90;;;;;;5000263;28;20034;-81
2023/01/22 04:04:01;;;;;;;33.77;19.73;;;-2.00;99.90;;;;;;4999266;28;20091;-81
2023/01/22 04:06:29;;;;;;;32.17;19.37;;;-2.00;99.90;;;;;;5020355;28;21002;-81
2023/01/22 04:08:55;;;;;;;33.37;19.87;;;-2.00;99.90;;;;;;5034160;28;20109;-81
2023/01/22 04:11:21;;;;;;;39.67;20.27;;;-2.00;99.90;;;;;;5035926;28;20514;-80
2023/01/22 04:13:47;;;;;;;34.37;19.53;;;-2.00;99.90;;;;;;5035606;28;20457;-81
2023/01/22 04:16:14;;;;;;;31.80;19.00;;;-2.00;99.90;;;;;;5035561;28;20116;-80
2023/01/22 04:18:40;;;;;;;36.13;21.47;;;-2.00;99.90;;;;;;5035805;28;20359;-80
2023/01/22 04:21:06;;;;;;;36.93;20.73;;;-2.00;99.90;;;;;;5035940;28;20029;-80
2023/01/22 04:23:32;;;;;;;39.37;19.53;;;-2.00;99.90;;;;;;5035280;28;20026;-81
2023/01/22 04:25:58;;;;;;;38.77;20.00;;;-2.00;99.90;;;;;;5035657;28;20057;-80
2023/01/22 04:28:24;;;;;;;36.37;20.70;;;-2.00;99.90;;;;;;5035548;28;20033;-80
2023/01/22 04:30:52;;;;;;;35.80;20.43;;;-2.00;99.90;;;;;;5035500;28;20459;-81
2023/01/22 04:33:17;;;;;;;34.30;19.90;;;-2.10;99.90;;;;;;5035245;28;20025;-81
2023/01/22 04:35:43;;;;;;;36.07;19.53;;;-2.00;99.90;;;;;;5035498;28;20484;-81
2023/01/22 04:38:12;;;;;;;37.70;19.93;;;-2.00;99.90;;;;;;5035426;28;20034;-81
2023/01/22 04:40:38;;;;;;;34.10;20.63;;;-2.00;99.90;;;;;;5034910;28;20045;-81
2023/01/22 04:43:05;;;;;;;34.17;19.33;;;-2.10;99.90;;;;;;5035154;28;20472;-81
2023/01/22 04:45:30;;;;;;;33.47;18.73;;;-2.00;99.90;;;;;;5035264;28;20476;-81
2023/01/22 04:47:56;;;;;;;35.73;20.60;;;-2.00;99.90;;;;;;5035133;28;20033;-81
2023/01/22 04:50:24;;;;;;;35.40;21.07;;;-2.00;99.90;;;;;;5034924;28;20060;-80
2023/01/22 04:52:50;;;;;;;35.80;20.57;;;-2.00;99.90;;;;;;5017068;28;20026;-81
2023/01/22 04:55:16;;;;;;;36.23;21.47;;;-2.00;99.90;;;;;;5035063;28;20036;-81
2023/01/22 04:57:42;;;;;;;36.80;20.83;;;-2.00;99.90;;;;;;5035067;28;20029;-80
2023/01/22 05:00:09;;;;;;;34.97;19.80;;;-2.10;99.90;;;;;;5017223;28;20036;-80
2023/01/22 05:02:36;;;;;;;38.57;21.37;;;-2.00;99.90;;;;;;5034526;28;20029;-80
2023/01/22 05:05:02;;;;;;;43.27;21.60;;;-2.00;99.90;;;;;;5016891;28;20025;-81
2023/01/22 05:07:28;;;;;;;34.80;20.57;;;-2.10;99.90;;;;;;5017530;28;20378;-79
2023/01/22 05:09:53;;;;;;;35.30;20.87;;;-2.00;99.90;;;;;;5017238;28;20032;-80
2023/01/22 05:12:19;;;;;;;35.50;20.57;;;-2.10;99.90;;;;;;5016694;28;20055;-80
2023/01/22 05:14:44;;;;;;;36.27;20.07;;;-2.10;99.90;;;;;;5016982;28;20032;-79
2023/01/22 05:17:10;;;;;;;39.20;21.53;;;-2.00;99.90;;;;;;5017104;28;20022;-81
2023/01/22 05:19:36;;;;;;;36.73;19.27;;;-2.00;99.90;;;;;;5034753;28;20025;-81
2023/01/22 05:22:02;;;;;;;37.53;21.43;;;-2.00;99.90;;;;;;5016501;28;20443;-80
2023/01/22 05:24:28;;;;;;;35.53;20.27;;;-2.10;99.90;;;;;;5034544;28;20113;-80
2023/01/22 05:26:53;;;;;;;36.07;20.27;;;-2.10;99.90;;;;;;5034619;28;20100;-80
2023/01/22 05:29:24;;;;;;;35.37;19.93;;;-2.10;99.90;;;;;;5034471;28;20397;-80
2023/01/22 05:31:50;;;;;;;35.03;19.00;;;-2.00;99.90;;;;;;5034303;28;20029;-81
2023/01/22 05:34:15;;;;;;;37.93;21.17;;;-2.10;99.90;;;;;;5016283;28;20059;-80
2023/01/22 05:36:41;;;;;;;38.33;21.63;;;-2.10;99.90;;;;;;5034246;28;20033;-81
2023/01/22 05:39:07;;;;;;;37.60;21.33;;;-2.10;99.90;;;;;;5034185;28;20122;-81
2023/01/22 05:41:32;;;;;;;40.70;21.97;;;-2.10;99.90;;;;;;5034663;28;20422;-80
2023/01/22 05:44:00;;;;;;;39.93;20.63;;;-2.10;99.90;;;;;;5033908;28;20360;-81
2023/01/22 05:46:26;;;;;;;36.00;20.07;;;-2.20;99.90;;;;;;5033804;28;20017;-81
2023/01/22 05:48:51;;;;;;;37.73;21.27;;;-2.20;99.90;;;;;;5033789;28;20479;-81
2023/01/22 05:51:17;;;;;;;36.30;21.30;;;-2.20;99.90;;;;;;5033957;28;20029;-80
2023/01/22 05:53:42;;;;;;;37.37;21.53;;;-2.20;99.90;;;;;;5034148;28;20033;-81
2023/01/22 05:56:09;;;;;;;36.57;20.47;;;-2.30;99.90;;;;;;5033914;28;20029;-81
2023/01/22 05:58:34;;;;;;;36.87;20.60;;;-2.30;99.90;;;;;;5033840;28;20053;-81
2023/01/22 06:01:00;;;;;;;39.63;20.93;;;-2.30;99.90;;;;;;5034076;28;20064;-81
2023/01/22 06:03:25;;;;;;;37.53;21.63;;;-2.30;99.90;;;;;;5033867;28;20171;-81
2023/01/22 06:06:03;;;;;;;36.57;20.37;;;-2.40;99.90;;;;;;5033775;28;20439;-80
2023/01/22 06:08:29;;;;;;;36.63;19.33;;;-2.40;99.90;;;;;;5016408;28;20354;-81
2023/01/22 06:11:17;;;;;;;37.50;20.40;;;-2.40;99.90;;;;;;5033694;28;20393;-81
2023/01/22 06:13:43;;;;;;;36.97;20.90;;;-2.40;99.90;;;;;;5033415;28;20489;-81
2023/01/22 06:16:09;;;;;;;33.93;20.83;;;-2.40;99.90;;;;;;5033654;28;20026;-80
2023/01/22 06:18:35;;;;;;;36.87;20.50;;;-2.40;99.90;;;;;;5033291;28;20026;-80
2023/01/22 06:21:05;;;;;;;37.97;20.97;;;-2.40;99.90;;;;;;5033331;28;20378;-80
2023/01/22 06:23:31;;;;;;;38.83;22.20;;;-2.50;99.90;;;;;;5032736;28;20413;-80
2023/01/22 06:25:58;;;;;;;36.83;20.33;;;-2.40;99.90;;;;;;5015159;28;20071;-80
2023/01/22 06:28:24;;;;;;;41.33;20.60;;;-2.40;99.90;;;;;;5033417;28;20073;-80
2023/01/22 06:30:51;;;;;;;36.13;19.97;;;-2.40;99.90;;;;;;5033404;28;20033;-80
2023/01/22 06:33:16;;;;;;;32.77;19.63;;;-2.40;99.90;;;;;;5033182;28;20101;-80
2023/01/22 06:35:42;;;;;;;34.10;19.60;;;-2.40;99.90;;;;;;5033343;28;20071;-81
2023/01/22 06:38:08;;;;;;;31.37;19.30;;;-2.40;99.90;;;;;;5033061;28;20030;-81
2023/01/22 06:40:33;;;;;;;36.07;19.40;;;-2.40;99.90;;;;;;5033069;28;20486;-80
2023/01/22 06:43:03;;;;;;;36.03;22.20;;;-2.40;99.90;;;;;;5033114;28;20037;-80
2023/01/22 06:45:29;;;;;;;38.80;21.30;;;-2.40;99.90;;;;;;5018348;28;20108;-84
2023/01/22 06:47:54;;;;;;;36.80;20.13;;;-2.40;99.90;;;;;;4997961;28;20021;-84
2023/01/22 06:50:20;;;;;;;32.60;16.73;;;-2.40;99.90;;;;;;5016605;28;20105;-84
2023/01/22 06:52:45;;;;;;;31.53;17.93;;;-2.40;99.90;;;;;;5017240;28;20112;-84
2023/01/22 06:55:11;;;;;;;35.47;22.97;;;-2.40;99.90;;;;;;5028121;28;20068;-81
2023/01/22 06:57:37;;;;;;;34.40;19.30;;;-2.40;99.90;;;;;;5032803;28;20034;-81
2023/01/22 07:00:04;;;;;;;36.60;19.30;;;-2.40;99.90;;;;;;5015047;28;20034;-81
2023/01/22 07:02:30;;;;;;;35.77;20.47;;;-2.40;99.90;;;;;;5015063;28;20029;-81
2023/01/22 07:04:56;;;;;;;36.40;21.70;;;-2.30;99.90;;;;;;5033109;28;20040;-81
2023/01/22 07:07:22;;;;;;;38.73;20.27;;;-2.30;99.90;;;;;;5032837;28;20264;-81
2023/01/22 07:09:47;;;;;;;37.93;22.13;;;-2.30;99.90;;;;;;5033005;28;20022;-81
2023/01/22 07:12:13;;;;;;;47.03;25.27;;;-2.30;99.90;;;;;;5032986;28;20030;-81
2023/01/22 07:14:38;;;;;;;44.47;29.03;;;-2.30;99.90;;;;;;5033027;28;20033;-81
2023/01/22 07:17:04;;;;;;;51.70;30.60;;;-2.30;99.90;;;;;;5031799;28;20111;-81
2023/01/22 07:19:30;;;;;;;51.97;31.13;;;-2.20;99.90;;;;;;5033063;28;20045;-81
2023/01/22 07:21:55;;;;;;;41.80;28.67;;;-2.20;99.90;;;;;;5032537;28;20034;-81
2023/01/22 07:24:21;;;;;;;33.93;19.63;;;-2.20;99.90;;;;;;5015483;28;20421;-81
2023/01/22 07:26:47;;;;;;;32.73;19.57;;;-2.20;99.90;;;;;;5032952;28;20033;-81
2023/01/22 07:29:12;;;;;;;32.53;17.90;;;-2.20;99.90;;;;;;5032301;28;20341;-83
2023/01/22 07:31:38;;;;;;;31.43;17.77;;;-2.10;99.90;;;;;;5031967;28;20100;-78
2023/01/22 07:34:05;;;;;;;35.87;18.97;;;-2.10;99.90;;;;;;5033205;28;20030;-78
2023/01/22 07:36:31;;;;;;;29.70;17.67;;;-2.10;99.90;;;;;;5035286;28;20079;-78
2023/01/22 07:38:56;;;;;;;27.23;16.30;;;-2.10;99.90;;;;;;5032290;28;20026;-79
2023/01/22 07:41:22;;;;;;;29.97;17.47;;;-2.10;99.90;;;;;;5031335;28;20128;-78
2023/01/22 07:43:48;;;;;;;31.23;18.40;;;-2.10;99.90;;;;;;5018055;28;20108;-80
2023/01/22 07:46:14;;;;;;;33.93;17.30;;;-2.10;99.90;;;;;;5033835;28;20075;-79
2023/01/22 07:48:39;;;;;;;28.47;17.07;;;-2.10;99.90;;;;;;5023321;28;20034;-78
2023/01/22 07:51:06;;;;;;;27.90;16.53;;;-2.10;99.90;;;;;;5034403;28;20018;-79
2023/01/22 07:53:32;;;;;;;30.50;17.63;;;-2.10;99.90;;;;;;5032464;28;20085;-79
2023/01/22 07:56:00;;;;;;;32.60;20.10;;;-2.10;99.90;;;;;;5032770;28;20037;-78
2023/01/22 07:58:25;;;;;;;41.63;22.37;;;-2.10;99.90;;;;;;5031851;28;20036;-78
2023/01/22 08:00:51;;;;;;;28.63;17.70;;;-2.00;99.90;;;;;;5035258;28;20113;-79
2023/01/22 08:03:16;;;;;;;29.53;19.17;;;-2.00;99.90;;;;;;5033471;28;20036;-79
2023/01/22 08:05:42;;;;;;;28.80;16.83;;;-2.00;99.90;;;;;;5035728;28;20038;-79
2023/01/22 08:08:13;;;;;;;28.97;17.40;;;-2.00;99.90;;;;;;5017641;28;20029;-79
2023/01/22 08:10:39;;;;;;;28.93;17.33;;;-2.00;99.90;;;;;;5035660;28;20029;-79
2023/01/22 08:13:04;;;;;;;36.80;20.57;;;-2.00;99.90;;;;;;5035306;28;20040;-79
2023/01/22 08:15:31;;;;;;;29.97;17.97;;;-2.00;99.90;;;;;;5035241;28;20048;-79
2023/01/22 08:17:57;;;;;;;28.60;17.37;;;-1.90;99.90;;;;;;5017947;28;20363;-80
2023/01/22 08:20:22;;;;;;;30.87;18.10;;;-1.90;99.90;;;;;;5017030;28;20129;-79
2023/01/22 08:22:48;;;;;;;26.97;17.37;;;-1.90;99.90;;;;;;5034962;28;20239;-80
2023/01/22 08:25:14;;;;;;;30.47;17.60;;;-1.90;99.90;;;;;;5034671;28;20033;-80
2023/01/22 08:27:39;;;;;;;26.93;16.43;;;-1.80;99.90;;;;;;5029040;28;20025;-75
2023/01/22 08:30:06;;;;;;;26.07;15.67;;;-1.80;99.90;;;;;;5017306;28;20528;-78
2023/01/22 08:32:32;;;;;;;28.53;17.10;;;-1.70;99.90;;;;;;5019437;28;20061;-77
2023/01/22 08:34:58;;;;;;;31.77;18.00;;;-1.70;99.90;;;;;;5019059;28;21453;-78
2023/01/22 08:37:23;;;;;;;24.60;15.83;;;-1.70;99.90;;;;;;5018708;28;20038;-79
2023/01/22 08:39:49;;;;;;;28.57;17.03;;;-1.70;99.90;;;;;;5016522;28;20113;-79
2023/01/22 08:42:15;;;;;;;27.20;16.80;;;-1.70;99.90;;;;;;5017213;28;20699;-78
2023/01/22 08:44:40;;;;;;;28.47;16.70;;;-1.60;99.90;;;;;;5017233;28;20034;-78
2023/01/22 08:47:06;;;;;;;27.87;16.83;;;-1.60;99.90;;;;;;5016312;28;20148;-79
2023/01/22 08:49:32;;;;;;;28.10;17.33;;;-1.60;99.90;;;;;;5018316;28;20131;-79
2023/01/22 08:51:57;;;;;;;31.30;18.13;;;-1.50;99.90;;;;;;5017713;28;20096;-79
2023/01/22 08:54:23;;;;;;;28.23;17.57;;;-1.40;99.90;;;;;;5020806;28;20030;-79
2023/01/22 08:56:49;;;;;;;28.30;17.43;;;-1.30;99.90;;;;;;5004075;28;20029;-77
2023/01/22 08:59:15;;;;;;;30.90;18.87;;;-1.30;99.90;;;;;;5017329;28;20025;-76
2023/01/22 09:01:41;;;;;;;28.57;18.10;;;-1.20;99.90;;;;;;5024525;28;20603;-77
2023/01/22 09:04:07;;;;;;;32.77;19.23;;;-1.20;99.90;;;;;;5018724;28;20030;-77
2023/01/22 09:06:37;;;;;;;29.70;17.83;;;-1.10;99.90;;;;;;5020272;28;20030;-75
2023/01/22 09:09:04;;;;;;;28.07;18.40;;;-1.10;99.90;;;;;;5010621;28;20022;-76
2023/01/22 09:11:30;;;;;;;30.77;19.53;;;-1.00;99.90;;;;;;5033691;28;20442;-79
2023/01/22 09:13:57;;;;;;;27.23;18.53;;;-1.10;99.90;;;;;;5015155;28;20026;-79
2023/01/22 09:16:23;;;;;;;28.67;18.40;;;-1.10;99.90;;;;;;5031532;28;20031;-79
2023/01/22 09:18:49;;;;;;;27.40;17.27;;;-1.00;99.90;;;;;;5029741;28;20523;-79
2023/01/22 09:21:14;;;;;;;28.20;16.63;;;-1.00;99.90;;;;;;5018310;28;20022;-79
2023/01/22 09:23:40;;;;;;;28.80;17.40;;;-1.00;99.90;;;;;;5019005;28;20119;-80
2023/01/22 09:26:06;;;;;;;28.60;17.30;;;-1.00;99.90;;;;;;5017775;28;20028;-81
2023/01/22 09:28:32;;;;;;;28.67;17.07;;;-0.90;99.90;;;;;;5019138;28;20029;-77
2023/01/22 09:30:57;;;;;;;30.20;15.43;;;-0.90;99.90;;;;;;5028668;28;20021;-78
2023/01/22 09:33:23;;;;;;;24.47;14.70;;;-0.90;99.90;;;;;;5012002;28;20025;-78
2023/01/22 09:35:48;;;;;;;45.17;22.53;;;-0.90;99.90;;;;;;5011114;28;20044;-78
2023/01/22 09:38:14;;;;;;;39.17;22.27;;;-0.90;99.90;;;;;;5027217;28;20116;-77
2023/01/22 09:40:47;;;;;;;25.50;15.43;;;-0.90;99.90;;;;;;5027786;28;20038;-77
2023/01/22 09:43:38;;;;;;;25.97;16.60;;;-0.90;99.90;;;;;;5024126;28;20034;-77
2023/01/22 09:46:13;;;;;;;25.30;15.40;;;-0.90;99.90;;;;;;4998123;28;20095;-76
2023/01/22 09:48:43;;;;;;;17.38;12.18;;;-0.90;99.90;;;;;;5022931;28;20033;-78
2023/01/22 09:51:13;;;;;;;26.10;15.27;;;-0.90;99.90;;;;;;5025763;28;20029;-77
2023/01/22 09:53:38;;;;;;;24.97;15.23;;;-0.80;99.90;;;;;;5025102;28;20025;-78
2023/01/22 09:56:06;;;;;;;25.73;15.73;;;-0.80;99.90;;;;;;5028126;28;20021;-77
2023/01/22 09:58:34;;;;;;;25.67;15.73;;;-0.70;99.90;;;;;;5008656;28;20033;-77
2023/01/22 10:01:03;;;;;;;27.57;15.80;;;-0.50;99.90;;;;;;5025855;28;20208;-78
2023/01/22 10:03:41;;;;;;;30.17;17.30;;;-0.40;99.90;;;;;;5025457;28;20573;-77
2023/01/22 10:06:17;;;;;;;25.43;16.30;;;-0.20;99.90;;;;;;5025828;28;20049;-77
2023/01/22 10:08:48;;;;;;;25.87;15.53;;;-0.10;99.90;;;;;;5025009;28;20097;-78
2023/01/22 10:11:14;;;;;;;29.23;16.03;;;0.00;99.90;;;;;;5026989;28;20028;-78
2023/01/22 10:13:40;;;;;;;32.77;17.23;;;0.10;99.90;;;;;;5008252;28;20025;-78
2023/01/22 10:16:05;;;;;;;26.00;15.63;;;0.30;99.90;;;;;;5006732;28;20033;-78
2023/01/22 10:18:58;;;;;;;25.37;15.13;;;0.30;99.90;;;;;;5010257;28;20026;-78
2023/01/22 10:21:28;;;;;;;21.37;13.87;;;0.30;99.90;;;;;;5028228;28;20022;-78
2023/01/22 10:23:57;;;;;;;23.57;13.53;;;0.20;99.90;;;;;;5009610;28;20050;-77
2023/01/22 10:26:41;;;;;;;21.97;13.37;;;0.20;99.90;;;;;;5024998;28;20335;-77
2023/01/22 10:29:19;;;;;;;22.98;14.13;;;0.30;99.90;;;;;;5026345;28;20474;-78
2023/01/22 10:31:47;;;;;;;25.97;17.23;;;0.30;99.90;;;;;;5028587;28;20041;-77
2023/01/22 10:34:15;;;;;;;20.40;13.33;;;0.30;99.90;;;;;;5024319;28;20977;-78
2023/01/22 10:36:51;;;;;;;19.27;12.37;;;0.20;99.90;;;;;;5025518;28;20025;-78
2023/01/22 10:39:17;;;;;;;27.47;14.83;;;0.10;99.90;;;;;;5025630;28;20432;-78
2023/01/22 10:41:45;;;;;;;19.87;13.93;;;0.00;99.90;;;;;;5005512;28;20175;-78
2023/01/22 10:44:20;;;;;;;23.23;14.03;;;-0.10;99.90;;;;;;5025076;28;20037;-78
2023/01/22 10:46:48;;;;;;;22.77;14.67;;;-0.20;99.90;;;;;;5025129;28;20972;-77
2023/01/22 10:49:34;;;;;;;26.07;16.20;;;-0.30;99.90;;;;;;5025908;28;20579;-77
2023/01/22 10:52:05;;;;;;;21.93;15.47;;;-0.40;99.90;;;;;;5020844;28;20045;-78
2023/01/22 10:54:31;;;;;;;22.13;14.37;;;-0.60;99.90;;;;;;5024046;28;20117;-77
2023/01/22 10:57:16;;;;;;;23.97;15.30;;;-0.60;99.90;;;;;;5024442;28;20112;-77
2023/01/22 11:00:02;;;;;;;21.83;14.27;;;-0.70;99.90;;;;;;5023359;28;20025;-78
2023/01/22 11:02:28;;;;;;;21.63;13.77;;;-0.70;99.90;;;;;;5024989;28;20024;-78
2023/01/22 11:04:55;;;;;;;20.73;12.53;;;-0.70;99.90;;;;;;5031006;28;20018;-77
2023/01/22 11:07:30;;;;;;;21.70;14.03;;;-0.70;99.90;;;;;;5024192;28;20022;-77
2023/01/22 11:10:01;;;;;;;21.85;15.10;;;-0.70;99.90;;;;;;5026180;28;20049;-77
2023/01/22 11:12:41;;;;;;;22.37;15.17;;;-0.70;99.90;;;;;;5031944;28;20036;-78
2023/01/22 11:15:21;;;;;;;19.23;13.60;;;-0.60;99.90;;;;;;5012259;28;20021;-78
2023/01/22 11:17:54;;;;;;;20.57;13.93;;;-0.60;99.90;;;;;;5026782;28;20365;-78
2023/01/22 11:20:47;;;;;;;21.30;14.37;;;-0.60;99.90;;;;;;5002189;28;20029;-82
2023/01/22 11:23:56;;;;;;;22.73;15.00;;;-0.60;99.90;;;;;;5035585;28;20030;-78
2023/01/22 11:27:07;;;;;;;19.27;12.77;;;-0.60;99.90;;;;;;5035498;28;20025;-78
2023/01/22 11:29:43;;;;;;;20.50;13.50;;;-0.60;99.90;;;;;;5030569;28;20029;-78
2023/01/22 11:32:31;;;;;;;19.30;12.50;;;-0.50;99.90;;;;;;5017995;28;20356;-79
2023/01/22 11:35:24;;;;;;;16.60;11.57;;;-0.30;99.90;;;;;;5019666;28;20152;-78
2023/01/22 11:38:08;;;;;;;17.47;11.83;;;-0.20;99.90;;;;;;4998030;28;20025;-78
2023/01/22 11:40:41;;;;;;;25.35;14.48;;;-0.10;99.90;;;;;;5017554;28;20050;-77
2023/01/22 11:43:19;;;;;;;17.67;12.07;;;0.00;99.90;;;;;;4996776;28;20068;-78
2023/01/22 11:46:19;;;;;;;16.70;10.93;;;0.20;99.90;;;;;;4995922;28;20030;-78
2023/01/22 11:49:00;;;;;;;17.77;11.30;;;0.20;99.90;;;;;;5019352;28;20053;-78
2023/01/22 11:51:55;;;;;;;17.73;12.00;;;0.20;99.90;;;;;;5027018;28;21480;-78
2023/01/22 11:54:52;;;;;;;17.13;12.27;;;0.20;99.90;;;;;;5029080;28;20021;-76
2023/01/22 11:57:35;;;;;;;17.67;12.60;;;0.20;99.90;;;;;;5031182;28;20018;-76
2023/01/22 12:00:27;;;;;;;16.90;12.40;;;0.20;99.90;;;;;;5033040;28;20026;-76
2023/01/22 12:02:58;;;;;;;15.90;10.73;;;0.30;99.90;;;;;;5034778;28;20153;-76
2023/01/22 12:05:36;;;;;;;19.00;11.60;;;0.20;99.90;;;;;;5032220;28;20389;-76
2023/01/22 12:08:35;;;;;;;17.37;12.30;;;0.20;99.90;;;;;;5031617;28;20047;-76
2023/01/22 12:11:27;;;;;;;20.53;14.13;;;0.20;99.90;;;;;;5030719;28;20431;-75
2023/01/22 12:14:11;;;;;;;16.40;10.83;;;0.20;99.90;;;;;;5032809;28;20120;-75
2023/01/22 12:17:02;;;;;;;17.77;10.90;;;0.30;99.90;;;;;;5029220;28;20029;-76
2023/01/22 12:19:42;;;;;;;20.87;13.93;;;0.40;99.90;;;;;;5030578;28;20026;-76
2023/01/22 12:22:27;;;;;;;17.30;11.90;;;0.50;99.90;;;;;;5029802;28;20126;-76
2023/01/22 12:25:00;;;;;;;14.93;10.63;;;0.50;99.90;;;;;;5031805;28;20025;-76
2023/01/22 12:27:34;;;;;;;15.87;11.27;;;0.50;99.90;;;;;;4996926;28;20073;-79
2023/01/22 12:30:26;;;;;;;14.67;10.10;;;0.40;99.90;;;;;;5017359;28;20022;-80
2023/01/22 12:32:57;;;;;;;15.30;10.10;;;0.40;99.90;;;;;;5015514;28;20468;-80
2023/01/22 12:35:25;;;;;;;18.33;12.93;;;0.50;99.90;;;;;;5017950;28;20041;-79
2023/01/22 12:38:09;;;;;;;17.20;11.13;;;0.50;99.90;;;;;;5017152;28;20528;-80
2023/01/22 12:40:38;;;;;;;16.40;10.43;;;0.60;99.90;;;;;;5017111;28;20687;-80
2023/01/22 12:43:05;;;;;;;16.87;11.23;;;0.70;99.90;;;;;;5016995;28;20037;-80
2023/01/22 12:46:06;;;;;;;15.87;10.83;;;0.70;99.90;;;;;;5017008;28;20084;-80